Flight Track Log - Related Links

Times and Time Zones

All times are in EDT time to prevent confusion due to time zone crossing. See the EGF2822 flight status page for this flight to view local times or setup timezone preferences in your user account.

Time Position Orientation Groundspeed Altitude Reporting Facility
EDT Latitude Longitude Course Direction KTS MPH feet Rate Location/Type
Sun 03:22:32 PM 32.8349 -97.0289 358° North  Level FlightAware Approximate
Sun 03:23:22 PM 32.8600 -97.0300 149° Southeast 175 201 1,700  Level FAA TRACON SMA TRACON (SMA)
Sun 03:27:22 PM 32.6869 -96.9058 84° East 274 315 8,900 1,757 Climbing FAA TRACON SMA TRACON (SMA)
Sun 03:28:02 PM 32.6928 -96.8419 83° East 283 326 9,900 825 Climbing FAA TRACON SMA TRACON (SMA)
Sun 03:28:42 PM 32.6994 -96.7750 80° East 292 336 10,000 900 Climbing FAA TRACON SMA TRACON (SMA)
Sun 03:29:22 PM 32.7081 -96.7150 80° East 302 348 11,100 1,875 Climbing FAA TRACON SMA TRACON (SMA)
Sun 03:30:02 PM 32.7183 -96.6461 81° East 305 351 12,500 1,875 Climbing FAA TRACON SMA TRACON (SMA)
Sun 03:30:42 PM 32.7272 -96.5786 80° East 301 346 13,600 1,443 Climbing FAA TRACON SMA TRACON (SMA)
Sun 03:31:21 PM 32.7364 -96.5153 89° East 312 359 14,400 1,291 Climbing FAA TRACON SMA TRACON (SMA)
Sun 03:32:01 PM 32.7378 -96.4419 90° East 323 372 15,300 963 Climbing FAA TRACON SMA TRACON (SMA)
Sun 03:32:42 PM 32.7375 -96.3644 89° East 340 391 15,700 593 Climbing FAA TRACON SMA TRACON (SMA)
Sun 03:33:22 PM 32.7381 -96.2919 91° East 357 411 16,100 975 Climbing FAA TRACON SMA TRACON (SMA)
Sun 03:34:02 PM 32.7372 -96.2083 90° East 365 420 17,000 1,275 Climbing FAA TRACON SMA TRACON (SMA)
Sun 03:34:42 PM 32.7378 -96.1244 90° East 368 423 17,800 1,200 Climbing FAA TRACON SMA TRACON (SMA)
Sun 03:35:22 PM 32.7375 -96.0494 91° East 370 426 18,600 1,215 Climbing FAA TRACON SMA TRACON (SMA)
Sun 03:36:01 PM 32.7364 -95.9644 89° East 373 429 19,400 1,154 Climbing FAA TRACON SMA TRACON (SMA)
Sun 03:36:40 PM 32.7372 -95.8881 94° East 375 432 20,100 1,190 Climbing FAA TRACON SMA TRACON (SMA)
Sun 03:37:57 PM 32.7283 -95.7292 91° East 374 430 21,700 1,182 Climbing Fort Worth Center
Sun 03:38:57 PM 32.7264 -95.6058 89° East 374 430 22,800 1,100 Climbing Fort Worth Center
Sun 03:39:57 PM 32.7289 -95.4872 91° East 384 442 23,900 1,050 Climbing Fort Worth Center
Sun 03:40:57 PM 32.7272 -95.3761 93° East 379 436 24,900 1,100 Climbing Fort Worth Center
Sun 03:41:57 PM 32.7206 -95.2381 92° East 379 436 26,100 1,200 Climbing Fort Worth Center
Sun 03:42:57 PM 32.7164 -95.1122 90° East 379 436 27,300 1,150 Climbing Fort Worth Center
Sun 03:43:57 PM 32.7161 -94.9839 93° East 385 443 28,400 1,150 Climbing Fort Worth Center
Sun 03:44:57 PM 32.7114 -94.8606 99° East 380 437 29,600 1,100 Climbing Fort Worth Center
Sun 03:45:57 PM 32.6944 -94.7375 113° Southeast 380 437 30,600 942 Climbing Fort Worth Center
Sun 03:46:58 PM 32.6522 -94.6203 112° Southeast 380 437 31,500 950 Climbing Fort Worth Center
Sun 03:47:57 PM 32.6119 -94.5033 112° Southeast 380 437 32,500 1,059 Climbing Fort Worth Center
Sun 03:48:57 PM 32.5669 -94.3717 112° Southeast 389 448 33,600 1,050 Climbing Fort Worth Center
Sun 03:49:57 PM 32.5264 -94.2522 112° Southeast 389 448 34,600 700 Climbing Fort Worth Center
Sun 03:50:57 PM 32.4858 -94.1356 112° Southeast 389 448 35,000 200 Climbing Fort Worth Center
Sun 03:51:57 PM 32.4431 -94.0114 112° Southeast 389 448 35,000 50 Level Fort Worth Center
Sun 03:52:57 PM 32.3978 -93.8803 112° Southeast 402 463 35,100 600 Climbing Fort Worth Center
Sun 03:53:57 PM 32.3542 -93.7517 113° Southeast 413 475 36,200 950 Climbing Fort Worth Center
Sun 03:54:57 PM 32.3089 -93.6233 113° Southeast 419 482 37,000 276 Climbing Fort Worth Center
Sun 03:56:51 PM 32.2275 -93.3950 112° Southeast 410 472 37,000  Level Houston Center
Sun 03:57:51 PM 32.1811 -93.2594 113° Southeast 423 487 37,000  Level Houston Center
Sun 03:58:51 PM 32.1325 -93.1261 112° Southeast 440 506 37,000  Level Houston Center
Sun 03:59:51 PM 32.0861 -92.9908 114° Southeast 440 506 37,000  Level Houston Center
Sun 04:00:51 PM 32.0331 -92.8481 113° Southeast 440 506 37,000  Level Houston Center
Sun 04:01:51 PM 31.9842 -92.7131 109° East 441 507 37,000  Level Houston Center
Sun 04:02:51 PM 31.9436 -92.5708 107° East 441 507 37,000  Level Houston Center
Sun 04:03:51 PM 31.9069 -92.4311 107° East 442 509 37,000  Level Houston Center
Sun 04:04:51 PM 31.8700 -92.2914 108° East 442 509 37,000  Level Houston Center
Sun 04:05:51 PM 31.8311 -92.1494 107° East 457 526 37,000  Level Houston Center
Sun 04:06:51 PM 31.7939 -92.0053 108° East 457 526 37,000  Level Houston Center
Sun 04:07:51 PM 31.7547 -91.8636 108° East 457 526 37,000  Level Houston Center
Sun 04:08:51 PM 31.7153 -91.7244 107° East 452 520 37,000  Level Houston Center
Sun 04:09:51 PM 31.6797 -91.5856 109° East 452 520 37,000  Level Houston Center
Sun 04:10:51 PM 31.6378 -91.4464 107° East 447 514 37,000  Level Houston Center
Sun 04:11:51 PM 31.6019 -91.3078 109° East 447 514 37,000  Level Houston Center
Sun 04:12:51 PM 31.5600 -91.1667 109° East 441 507 37,000  Level Houston Center
Sun 04:13:51 PM 31.5219 -91.0403 107° East 447 514 37,000  Level Houston Center
Sun 04:14:51 PM 31.4836 -90.8919 108° East 459 528 37,000  Level Houston Center
Sun 04:15:53 PM 31.4431 -90.7486 109° East 464 534 37,000  Level Houston Center
Sun 04:17:03 PM 31.3936 -90.5764 108° East 464 534 37,000  Level Houston Center
Sun 04:18:03 PM 31.3528 -90.4311 109° East 464 534 37,000  Level Houston Center
Sun 04:19:03 PM 31.3097 -90.2858 99° East 464 534 37,000 -50 Level Houston Center
Sun 04:20:03 PM 31.2894 -90.1331 98° East 464 534 36,900  Descending Houston Center
Sun 04:21:03 PM 31.2708 -89.9853 98° East 464 534 37,000 50 Climbing Houston Center
Sun 04:22:03 PM 31.2522 -89.8325 98° East 469 540 37,000  Level Houston Center
Sun 04:23:03 PM 31.2333 -89.6825 98° East 469 540 37,000  Level Houston Center
Sun 04:24:03 PM 31.2144 -89.5322 101° East 469 540 37,000  Level Houston Center
Sun 04:25:03 PM 31.1892 -89.3847 108° East 462 532 37,000  Level Houston Center
Sun 04:26:03 PM 31.1467 -89.2353 108° East 467 537 37,000  Level Houston Center
Sun 04:27:03 PM 31.1067 -89.0933 110° East 473 544 37,000  Level Houston Center
Sun 04:28:03 PM 31.0619 -88.9492 110° East 473 544 37,000  Level Houston Center
Sun 04:29:03 PM 31.0194 -88.8097 109° East 473 544 37,000  Level Houston Center
Sun 04:30:03 PM 30.9767 -88.6656 107° East 473 544 37,000  Level Houston Center
Sun 04:31:03 PM 30.9378 -88.5144 109° East 468 539 37,000 -50 Level Houston Center
Sun 04:32:03 PM 30.8947 -88.3681 109° East 473 544 36,900  Descending Houston Center
Sun 04:33:03 PM 30.8517 -88.2244 111° Southeast 473 544 37,000 34 Climbing Houston Center
Sun 04:34:59 PM 30.7611 -87.9447 109° East 466 536 37,000  Level Jacksonville Center
Sun 04:35:59 PM 30.7169 -87.7997 110° East 466 536 37,000  Level Jacksonville Center
Sun 04:36:59 PM 30.6722 -87.6550 109° East 466 536 37,000  Level Jacksonville Center
Sun 04:37:59 PM 30.6294 -87.5131 109° East 471 542 37,000  Level Jacksonville Center
Sun 04:38:59 PM 30.5867 -87.3686 109° East 471 542 37,000  Level Jacksonville Center
Sun 04:39:59 PM 30.5436 -87.2217 107° East 471 542 37,000  Level Jacksonville Center
Sun 04:40:59 PM 30.5047 -87.0753 103° East 476 548 37,000  Level Jacksonville Center
Sun 04:41:59 PM 30.4742 -86.9269 102° East 471 542 37,000  Level Jacksonville Center
Sun 04:42:59 PM 30.4475 -86.7767 102° East 471 542 37,000  Level Jacksonville Center
Sun 04:43:59 PM 30.4206 -86.6239 102° East 471 542 37,000 -400 Level Jacksonville Center
Sun 04:44:59 PM 30.3936 -86.4711 96° East 476 548 36,200 -1,400 Descending Jacksonville Center
Sun 04:45:59 PM 30.3792 -86.3189 98° East 476 548 34,200 -1,950 Descending Jacksonville Center
Sun 04:46:59 PM 30.3603 -86.1664 96° East 476 548 32,300 -1,950 Descending Jacksonville Center
Sun 04:47:59 PM 30.3453 -86.0119 94° East 482 555 30,300 -2,000 Descending Jacksonville Center
Sun 04:48:59 PM 30.3344 -85.8481 92° East 489 563 28,300 -2,000 Descending Jacksonville Center
Sun 04:49:59 PM 30.3297 -85.6914 90° East 489 563 26,300 -1,950 Descending Jacksonville Center
Sun 04:50:59 PM 30.3289 -85.5372 89° East 483 556 24,400 -1,750 Descending Jacksonville Center
Sun 04:51:59 PM 30.3300 -85.3786 88° East 469 540 22,800 -2,400 Descending Jacksonville Center
Sun 04:52:59 PM 30.3347 -85.2417 84° East 439 505 19,600 -3,200 Descending Jacksonville Center
Sun 04:53:59 PM 30.3453 -85.1167 86° East 408 470 16,400 -3,300 Descending Jacksonville Center
Sun 04:54:59 PM 30.3514 -85.0061 85° East 372 428 13,000 -3,050 Descending Jacksonville Center
Sun 04:55:59 PM 30.3592 -84.9003 86° East 342 394 10,300 -1,900 Descending Jacksonville Center
Sun 04:56:59 PM 30.3647 -84.8089 89° East 308 354 9,200 -1,050 Descending Jacksonville Center
Sun 04:57:59 PM 30.3661 -84.7319 98° East 266 306 8,200 -1,650 Descending Jacksonville Center
Sun 04:58:59 PM 30.3567 -84.6522 99° East 248 285 5,900 -1,950 Descending Jacksonville Center
Sun 04:59:59 PM 30.3453 -84.5656 99° East 253 291 4,300 -1,600 Descending Jacksonville Center

Login

Don't have an account? Register now (free) for customized features, flight alerts, and more!